createdAt,value
2022-12-23T00:00:00.661Z,7.88
2022-12-23T00:01:00.796Z,7.91
2022-12-23T00:02:01.051Z,7.92
2022-12-23T00:03:01.201Z,7.93
2022-12-23T00:04:01.302Z,7.97
2022-12-23T00:05:00.395Z,7.99
2022-12-23T00:06:00.537Z,7.99
2022-12-23T00:07:00.719Z,8
2022-12-23T00:08:00.848Z,8
2022-12-23T00:09:01.003Z,8
2022-12-23T00:10:01.141Z,8.03
2022-12-23T00:11:00.293Z,8.03
2022-12-23T00:12:00.471Z,8.04
2022-12-23T00:13:00.614Z,8.05
2022-12-23T00:14:00.735Z,8.07
2022-12-23T00:15:00.914Z,8.08
2022-12-23T00:16:01.167Z,8.08
2022-12-23T00:17:01.253Z,8.07
2022-12-23T00:18:00.333Z,8.07
2022-12-23T00:19:00.482Z,8.08
2022-12-23T00:20:00.629Z,8.09
2022-12-23T00:21:06.601Z,8.09
2022-12-23T00:22:00.924Z,8.12
2022-12-23T00:23:01.079Z,8.11
2022-12-23T00:24:01.220Z,8.11
2022-12-23T00:25:00.374Z,8.12
2022-12-23T00:26:00.663Z,8.13
2022-12-23T00:27:00.672Z,8.14
2022-12-23T00:28:00.825Z,8.15
2022-12-23T00:29:00.992Z,8.15
2022-12-23T00:30:01.122Z,8.15
2022-12-23T00:31:00.277Z,8.14
2022-12-23T00:32:00.546Z,8.14
2022-12-23T00:33:00.572Z,8.15
2022-12-23T00:34:00.728Z,8.14
2022-12-23T00:35:00.864Z,8.14
2022-12-23T00:36:01.066Z,8.13
2022-12-23T00:37:01.192Z,8.13
2022-12-23T00:38:00.318Z,8.13
2022-12-23T00:39:00.496Z,8.12
2022-12-23T00:40:06.148Z,8.12
2022-12-23T00:41:00.792Z,8.12
2022-12-23T00:42:00.943Z,8.11
2022-12-23T00:43:01.114Z,8.09
2022-12-23T00:44:01.257Z,8.11
2022-12-23T00:45:00.395Z,8.12
2022-12-23T00:46:00.641Z,8.13
2022-12-23T00:47:00.700Z,8.14
2022-12-23T00:48:00.863Z,8.13
2022-12-23T00:49:00.998Z,8.11
2022-12-23T00:50:01.169Z,8.09
2022-12-23T00:51:00.315Z,8.09
2022-12-23T00:52:00.457Z,8.07
2022-12-23T00:53:00.651Z,8.07
2022-12-23T00:54:00.780Z,8.07
2022-12-23T00:55:00.899Z,8.06
2022-12-23T00:56:01.059Z,8.05
2022-12-23T00:57:01.204Z,8.03
2022-12-23T00:58:00.388Z,8.02
2022-12-23T00:59:00.503Z,8.02
2022-12-23T01:00:00.664Z,8.02
2022-12-23T01:01:00.863Z,8.02
2022-12-23T01:02:01.136Z,8.01
2022-12-23T01:03:01.195Z,8
2022-12-23T01:04:01.252Z,8
2022-12-23T01:05:00.411Z,8
2022-12-23T01:06:00.563Z,8.01
2022-12-23T01:07:00.728Z,8.01
2022-12-23T01:08:00.876Z,8.01
2022-12-23T01:09:01.057Z,8
2022-12-23T01:10:01.152Z,8
2022-12-23T01:11:00.317Z,8.01
2022-12-23T01:12:00.458Z,8.01
2022-12-23T01:13:00.645Z,8.01
2022-12-23T01:14:00.802Z,8.01
2022-12-23T01:15:00.918Z,8
2022-12-23T01:16:01.070Z,8
2022-12-23T01:17:01.267Z,8
2022-12-23T01:18:00.392Z,8
2022-12-23T01:19:00.524Z,8.01
2022-12-23T01:20:00.661Z,8.02
2022-12-23T01:21:00.808Z,8.01
2022-12-23T01:22:00.973Z,8.01
2022-12-23T01:23:01.110Z,8
2022-12-23T01:24:01.269Z,8
2022-12-23T01:25:00.394Z,8
2022-12-23T01:26:00.567Z,8
2022-12-23T01:27:00.696Z,8.01
2022-12-23T01:28:00.850Z,8.01
2022-12-23T01:29:01.043Z,8.02
2022-12-23T01:30:01.202Z,8.03
2022-12-23T01:31:00.289Z,8.03
2022-12-23T01:32:00.567Z,8.04
2022-12-23T01:33:00.586Z,8.06
2022-12-23T01:34:00.780Z,8.06
2022-12-23T01:35:00.893Z,8.06
2022-12-23T01:36:01.041Z,8.06
2022-12-23T01:37:01.230Z,8.06
2022-12-23T01:38:00.330Z,8.07
2022-12-23T01:39:00.522Z,8.08
2022-12-23T01:40:00.639Z,8.08
2022-12-23T01:41:00.781Z,8.09
2022-12-23T01:42:00.929Z,8.08
2022-12-23T01:43:01.122Z,8.08
2022-12-23T01:44:01.259Z,8.07
2022-12-23T01:45:00.379Z,8.08
2022-12-23T01:46:00.606Z,8.08
2022-12-23T01:47:00.691Z,8.07
2022-12-23T01:48:00.841Z,8.07
2022-12-23T01:49:01.011Z,8.07
2022-12-23T01:50:01.125Z,8.05
2022-12-23T01:51:00.272Z,8.04
2022-12-23T01:52:00.431Z,8.04
2022-12-23T01:53:04.818Z,8.03
2022-12-23T01:54:00.752Z,8.02
2022-12-23T01:55:00.866Z,8.01
2022-12-23T01:56:01.027Z,8.01
2022-12-23T01:57:01.169Z,8
2022-12-23T01:58:00.313Z,8
2022-12-23T01:59:00.492Z,8
2022-12-23T02:00:00.608Z,7.98
2022-12-23T02:01:00.868Z,7.99
2022-12-23T02:02:01.131Z,7.97
2022-12-23T02:03:01.181Z,7.96
2022-12-23T02:04:01.226Z,7.94
2022-12-23T02:05:00.362Z,7.94
2022-12-23T02:06:00.506Z,7.93
2022-12-23T02:07:00.648Z,7.93
2022-12-23T02:08:00.805Z,7.93
2022-12-23T02:09:00.964Z,7.93
2022-12-23T02:10:01.109Z,7.92
2022-12-23T02:11:01.239Z,7.91
2022-12-23T02:12:00.400Z,7.91
2022-12-23T02:13:00.521Z,7.9
2022-12-23T02:14:00.701Z,7.9
2022-12-23T02:15:00.843Z,7.88
2022-12-23T02:16:00.975Z,7.87
2022-12-23T02:17:01.233Z,7.86
2022-12-23T02:18:00.265Z,7.87
2022-12-23T02:19:00.461Z,7.86
2022-12-23T02:20:00.568Z,7.87
2022-12-23T02:21:00.719Z,7.87
2022-12-23T02:22:00.865Z,7.88
2022-12-23T02:23:01.018Z,7.9
2022-12-23T02:24:01.158Z,7.9
2022-12-23T02:25:00.325Z,7.9
2022-12-23T02:26:00.467Z,7.9
2022-12-23T02:27:00.622Z,7.89
2022-12-23T02:28:00.761Z,7.88
2022-12-23T02:29:00.915Z,7.88
2022-12-23T02:30:01.102Z,7.89
2022-12-23T02:31:01.300Z,7.9
2022-12-23T02:32:00.336Z,7.9
2022-12-23T02:33:00.498Z,7.9
2022-12-23T02:34:00.635Z,7.9
2022-12-23T02:35:00.817Z,7.9
2022-12-23T02:36:00.953Z,7.89
2022-12-23T02:37:01.103Z,7.9
2022-12-23T02:38:01.243Z,7.9
2022-12-23T02:39:00.394Z,7.91
2022-12-23T02:40:00.568Z,7.91
2022-12-23T02:41:00.716Z,7.91
2022-12-23T02:42:00.860Z,7.89
2022-12-23T02:43:01.032Z,7.89
2022-12-23T02:44:01.171Z,7.88
2022-12-23T02:45:00.312Z,7.88
2022-12-23T02:46:00.550Z,7.88
2022-12-23T02:47:00.605Z,7.87
2022-12-23T02:48:00.763Z,7.86
2022-12-23T02:49:00.916Z,7.86
2022-12-23T02:50:01.049Z,7.85
2022-12-23T02:51:01.204Z,7.86
2022-12-23T02:52:00.348Z,7.86
2022-12-23T02:53:00.511Z,7.86
2022-12-23T02:54:00.678Z,7.85
2022-12-23T02:55:00.798Z,7.85
2022-12-23T02:56:00.940Z,7.85
2022-12-23T02:57:01.099Z,7.85
2022-12-23T02:58:01.252Z,7.85
2022-12-23T02:59:00.393Z,7.86
2022-12-23T03:00:00.529Z,7.87
2022-12-23T03:01:00.676Z,7.87
2022-12-23T03:02:00.903Z,7.88
2022-12-23T03:03:01.162Z,7.9
2022-12-23T03:04:01.272Z,7.89
2022-12-23T03:05:01.174Z,7.9
2022-12-23T03:06:00.410Z,7.91
2022-12-23T03:07:05.882Z,7.92
2022-12-23T03:08:00.726Z,7.93
2022-12-23T03:09:00.885Z,7.94
2022-12-23T03:10:01.044Z,7.93
2022-12-23T03:11:01.164Z,7.92
2022-12-23T03:12:00.303Z,7.91
2022-12-23T03:13:00.540Z,7.89
2022-12-23T03:14:00.619Z,7.87
2022-12-23T03:15:00.768Z,7.86
2022-12-23T03:16:01.020Z,7.85
2022-12-23T03:17:01.071Z,7.84
2022-12-23T03:18:01.219Z,7.79
2022-12-23T03:19:00.396Z,7.77
2022-12-23T03:20:00.506Z,7.74
2022-12-23T03:21:00.635Z,7.72
2022-12-23T03:22:00.801Z,7.7
2022-12-23T03:23:00.961Z,7.69
2022-12-23T03:24:01.112Z,7.68
2022-12-23T03:25:01.248Z,7.65
2022-12-23T03:26:00.418Z,7.62
2022-12-23T03:27:00.555Z,7.62
2022-12-23T03:28:00.688Z,7.62
2022-12-23T03:29:00.842Z,7.62
2022-12-23T03:30:00.996Z,7.6
2022-12-23T03:31:01.241Z,7.6
2022-12-23T03:32:00.281Z,7.6
2022-12-23T03:33:00.435Z,7.61
2022-12-23T03:34:00.586Z,7.63
2022-12-23T03:35:00.740Z,7.63
2022-12-23T03:36:00.910Z,7.63
2022-12-23T03:37:01.028Z,7.63
2022-12-23T03:38:01.174Z,7.63
2022-12-23T03:39:00.316Z,7.64
2022-12-23T03:40:00.469Z,7.67
2022-12-23T03:41:00.636Z,7.69
2022-12-23T03:42:00.772Z,7.71
2022-12-23T03:43:00.920Z,7.73
2022-12-23T03:44:01.061Z,7.74
2022-12-23T03:45:37.032Z,7.73
2022-12-23T03:46:00.401Z,7.74
2022-12-23T03:47:00.499Z,7.75
2022-12-23T03:48:00.655Z,7.75
2022-12-23T03:49:00.804Z,7.74
2022-12-23T03:50:00.946Z,7.75
2022-12-23T03:51:01.131Z,7.76
2022-12-23T03:52:01.252Z,7.77
2022-12-23T03:53:00.403Z,7.78
2022-12-23T03:54:00.554Z,7.78
2022-12-23T03:55:00.705Z,7.77
2022-12-23T03:56:00.871Z,7.78
2022-12-23T03:57:01.005Z,7.81
2022-12-23T03:58:01.149Z,7.82
2022-12-23T03:59:00.320Z,7.84
2022-12-23T04:00:00.447Z,7.88
2022-12-23T04:01:00.609Z,7.9
2022-12-23T04:02:00.859Z,7.9
2022-12-23T04:03:00.995Z,7.91
2022-12-23T04:04:01.128Z,7.9
2022-12-23T04:05:01.198Z,7.9
2022-12-23T04:06:00.337Z,7.92
2022-12-23T04:07:00.495Z,7.91
2022-12-23T04:08:00.644Z,7.91
2022-12-23T04:09:00.810Z,7.92
2022-12-23T04:10:00.924Z,7.92
2022-12-23T04:11:01.083Z,7.93
2022-12-23T04:12:01.225Z,7.94
2022-12-23T04:13:00.382Z,7.94
2022-12-23T04:14:00.542Z,7.96
2022-12-23T04:15:00.694Z,7.97
2022-12-23T04:16:00.892Z,7.96
2022-12-23T04:17:00.984Z,7.96
2022-12-23T04:18:01.141Z,7.97
2022-12-23T04:19:00.286Z,7.98
2022-12-23T04:20:00.494Z,7.97
2022-12-23T04:21:00.581Z,7.96
2022-12-23T04:22:00.741Z,7.94
2022-12-23T04:23:00.898Z,7.93
2022-12-23T04:24:01.043Z,7.93
2022-12-23T04:25:01.210Z,7.94
2022-12-23T04:26:00.352Z,7.96
2022-12-23T04:27:00.504Z,7.98
2022-12-23T04:28:00.642Z,7.97
2022-12-23T04:29:00.799Z,7.96
2022-12-23T04:30:00.958Z,7.93
2022-12-23T04:31:01.205Z,7.93
2022-12-23T04:32:01.241Z,7.92
2022-12-23T04:33:00.406Z,7.92
2022-12-23T04:34:00.564Z,7.91
2022-12-23T04:35:00.702Z,7.9
2022-12-23T04:36:00.858Z,7.91
2022-12-23T04:37:01.008Z,7.92
2022-12-23T04:38:01.156Z,7.94
2022-12-23T04:39:00.332Z,7.94
2022-12-23T04:40:00.461Z,7.93
2022-12-23T04:41:00.612Z,7.92
2022-12-23T04:42:00.755Z,7.92
2022-12-23T04:43:00.896Z,7.92
2022-12-23T04:44:01.082Z,7.92
2022-12-23T04:45:01.202Z,7.93
2022-12-23T04:46:00.367Z,7.93
2022-12-23T04:47:00.572Z,7.93
2022-12-23T04:48:00.668Z,7.93
2022-12-23T04:49:00.828Z,7.94
2022-12-23T04:50:00.967Z,7.97
2022-12-23T04:51:01.125Z,7.98
2022-12-23T04:53:00.376Z,7.99
2022-12-23T04:54:00.544Z,7.99
2022-12-23T04:55:00.670Z,7.99
2022-12-23T04:56:00.829Z,7.98
2022-12-23T04:57:00.977Z,7.98
2022-12-23T04:58:01.134Z,7.98
2022-12-23T04:59:00.313Z,7.98
2022-12-23T05:00:00.435Z,7.99
2022-12-23T05:01:00.623Z,7.99
2022-12-23T05:02:00.984Z,7.98
2022-12-23T05:03:00.989Z,7.97
2022-12-23T05:04:01.047Z,7.96
2022-12-23T05:05:01.193Z,7.97
2022-12-23T05:06:00.344Z,7.97
2022-12-23T05:07:00.481Z,7.96
2022-12-23T05:08:00.615Z,7.94
2022-12-23T05:09:00.775Z,7.94
2022-12-23T05:10:00.929Z,7.94
2022-12-23T05:11:01.070Z,7.94
2022-12-23T05:12:01.231Z,7.94
2022-12-23T05:13:00.380Z,7.94
2022-12-23T05:14:00.524Z,7.94
2022-12-23T05:15:00.707Z,7.94
2022-12-23T05:16:00.921Z,7.96
2022-12-23T05:17:07.103Z,7.96
2022-12-23T05:18:01.116Z,7.94
2022-12-23T05:19:00.263Z,7.96
2022-12-23T05:20:00.434Z,7.97
2022-12-23T05:21:00.597Z,7.96
2022-12-23T05:22:00.715Z,7.96
2022-12-23T05:23:00.847Z,7.94
2022-12-23T05:24:00.991Z,7.93
2022-12-23T05:25:01.159Z,7.93
2022-12-23T05:26:00.328Z,7.93
2022-12-23T05:27:00.747Z,7.92
2022-12-23T05:28:00.581Z,7.93
2022-12-23T05:29:00.732Z,7.94
2022-12-23T05:30:00.889Z,7.96
2022-12-23T05:31:01.077Z,7.96
2022-12-23T05:32:01.274Z,7.97
2022-12-23T05:33:00.409Z,8
2022-12-23T05:34:06.103Z,8.03
2022-12-23T05:35:00.646Z,8.03
2022-12-23T05:36:00.812Z,8.04
2022-12-23T05:37:00.936Z,8.07
2022-12-23T05:38:01.097Z,8.09
2022-12-23T05:39:01.251Z,8.09
2022-12-23T05:40:00.395Z,8.09
2022-12-23T05:41:00.570Z,8.08
2022-12-23T05:42:00.737Z,8.07
2022-12-23T05:43:00.861Z,8.06
2022-12-23T05:44:01.024Z,8.05
2022-12-23T05:45:01.147Z,8.06
2022-12-23T05:46:00.336Z,8.07
2022-12-23T05:47:00.462Z,8.08
2022-12-23T05:48:00.608Z,8.09
2022-12-23T05:49:00.759Z,8.13
2022-12-23T05:50:00.942Z,8.14
2022-12-23T05:51:01.046Z,8.14
2022-12-23T05:52:01.196Z,8.13
2022-12-23T05:53:00.336Z,8.12
2022-12-23T05:54:00.510Z,8.12
2022-12-23T05:55:00.681Z,8.12
2022-12-23T05:56:00.845Z,8.09
2022-12-23T05:57:00.962Z,8.07
2022-12-23T05:58:01.121Z,8.06
2022-12-23T05:59:01.245Z,8.07
2022-12-23T06:00:00.394Z,8.08
2022-12-23T06:01:00.550Z,8.08
2022-12-23T06:02:00.915Z,8.09
2022-12-23T06:03:01.119Z,8.07
2022-12-23T06:04:01.285Z,8.06
2022-12-23T06:05:01.147Z,8.04
2022-12-23T06:06:00.293Z,8.04
2022-12-23T06:07:00.429Z,8.05
2022-12-23T06:08:00.594Z,8.06
2022-12-23T06:09:00.727Z,8.08
2022-12-23T06:10:00.875Z,8.11
2022-12-23T06:11:01.032Z,8.13
2022-12-23T06:12:01.171Z,8.13
2022-12-23T06:13:00.334Z,8.13
2022-12-23T06:14:00.499Z,8.15
2022-12-23T06:15:00.632Z,8.16
2022-12-23T06:16:00.762Z,8.17
2022-12-23T06:17:00.973Z,8.17
2022-12-23T06:18:01.056Z,8.16
2022-12-23T06:19:01.210Z,8.17
2022-12-23T06:20:00.389Z,8.18
2022-12-23T06:21:00.515Z,8.2
2022-12-23T06:22:00.651Z,8.2
2022-12-23T06:23:00.835Z,8.22
2022-12-23T06:24:00.951Z,8.22
2022-12-23T06:25:01.126Z,8.21
2022-12-23T06:26:01.249Z,8.22
2022-12-23T06:27:00.396Z,8.22
2022-12-23T06:28:00.581Z,8.22
2022-12-23T06:29:00.698Z,8.22
2022-12-23T06:30:00.848Z,8.22
2022-12-23T06:31:01.004Z,8.21
2022-12-23T06:32:01.259Z,8.21
2022-12-23T06:33:00.338Z,8.2
2022-12-23T06:34:00.463Z,8.19
2022-12-23T06:35:00.608Z,8.18
2022-12-23T06:36:00.756Z,8.18
2022-12-23T06:37:00.908Z,8.18
2022-12-23T06:38:01.064Z,8.18
2022-12-23T06:39:01.193Z,8.19
2022-12-23T06:40:00.357Z,8.21
2022-12-23T06:41:00.504Z,8.2
2022-12-23T06:42:00.676Z,8.22
2022-12-23T06:43:00.844Z,8.23
2022-12-23T06:44:00.977Z,8.24
2022-12-23T06:45:01.120Z,8.24
2022-12-23T06:46:01.312Z,8.23
2022-12-23T06:47:00.472Z,8.23
2022-12-23T06:48:00.553Z,8.22
2022-12-23T06:49:00.712Z,8.21
2022-12-23T06:50:00.849Z,8.21
2022-12-23T06:51:01.030Z,8.22
2022-12-23T06:52:01.175Z,8.24
2022-12-23T06:53:00.313Z,8.24
2022-12-23T06:54:00.449Z,8.24
2022-12-23T06:55:00.602Z,8.24
2022-12-23T06:56:00.753Z,8.26
2022-12-23T06:57:00.918Z,8.26
2022-12-23T06:58:01.058Z,8.26
2022-12-23T06:59:01.219Z,8.27
2022-12-23T07:00:00.359Z,8.29
2022-12-23T07:01:00.531Z,8.3
2022-12-23T07:02:00.907Z,8.31
2022-12-23T07:03:01.022Z,8.3
2022-12-23T07:04:00.961Z,8.31
2022-12-23T07:05:01.116Z,8.34
2022-12-23T07:07:00.383Z,8.34
2022-12-23T07:08:00.543Z,8.34
2022-12-23T07:09:00.672Z,8.33
2022-12-23T07:10:00.811Z,8.32
2022-12-23T07:11:00.966Z,8.32
2022-12-23T07:12:01.115Z,8.33
2022-12-23T07:13:01.253Z,8.34
2022-12-23T07:14:00.437Z,8.37
2022-12-23T07:15:00.541Z,8.41
2022-12-23T07:16:00.691Z,8.39
2022-12-23T07:17:00.924Z,8.35
2022-12-23T07:18:00.980Z,8.37
2022-12-23T07:19:01.140Z,8.36
2022-12-23T07:20:00.302Z,8.37
2022-12-23T07:21:00.433Z,8.37
2022-12-23T07:22:00.567Z,8.37
2022-12-23T07:23:00.706Z,8.36
2022-12-23T07:24:00.885Z,8.36
2022-12-23T07:25:01.027Z,8.39
2022-12-23T07:26:01.173Z,8.42
2022-12-23T07:27:00.315Z,8.43
2022-12-23T07:28:00.462Z,8.44
2022-12-23T07:29:00.615Z,8.44
2022-12-23T07:30:00.769Z,8.44
2022-12-23T07:31:00.967Z,8.45
2022-12-23T07:32:01.104Z,8.45
2022-12-23T07:33:01.196Z,8.45
2022-12-23T07:34:00.359Z,8.45
2022-12-23T07:35:00.516Z,8.45
2022-12-23T07:36:00.640Z,8.45
2022-12-23T07:37:00.775Z,8.45
2022-12-23T07:38:00.941Z,8.45
2022-12-23T07:39:01.085Z,8.45
2022-12-23T07:40:08.042Z,8.44
2022-12-23T07:41:00.396Z,8.41
2022-12-23T07:42:25.099Z,8.39
2022-12-23T07:43:00.676Z,8.35
2022-12-23T07:44:00.817Z,8.33
2022-12-23T07:45:00.988Z,8.32
2022-12-23T07:46:01.336Z,8.31
2022-12-23T07:47:00.261Z,8.32
2022-12-23T07:48:00.428Z,8.31
2022-12-23T07:49:00.572Z,8.29
2022-12-23T07:50:00.696Z,8.29
2022-12-23T07:51:00.897Z,8.28
2022-12-23T07:52:01.008Z,8.26
2022-12-23T07:53:01.151Z,8.26
2022-12-23T07:54:00.347Z,8.27
2022-12-23T07:55:00.461Z,8.26
2022-12-23T07:56:00.649Z,8.26
2022-12-23T07:57:00.768Z,8.26
2022-12-23T07:58:00.922Z,8.27
2022-12-23T07:59:01.076Z,8.27
2022-12-23T08:00:01.218Z,8.28
2022-12-23T08:01:00.471Z,8.27
2022-12-23T08:02:00.691Z,8.27
2022-12-23T08:03:00.891Z,8.27
2022-12-23T08:04:00.816Z,8.28
2022-12-23T08:05:01.015Z,8.29
2022-12-23T08:06:01.131Z,8.29
2022-12-23T08:07:01.256Z,8.3
2022-12-23T08:08:00.438Z,8.3
2022-12-23T08:09:00.570Z,8.3
2022-12-23T08:10:00.721Z,8.3
2022-12-23T08:11:00.884Z,8.32
2022-12-23T08:12:01.017Z,8.34
2022-12-23T08:13:01.169Z,8.36
2022-12-23T08:14:00.316Z,8.39
2022-12-23T08:15:00.472Z,8.41
2022-12-23T08:16:00.620Z,8.41
2022-12-23T08:17:00.859Z,8.41
2022-12-23T08:18:00.900Z,8.41
2022-12-23T08:19:01.069Z,8.42
2022-12-23T08:20:01.214Z,8.43
2022-12-23T08:21:00.358Z,8.44
2022-12-23T08:22:00.526Z,8.45
2022-12-23T08:23:00.675Z,8.45
2022-12-23T08:24:00.811Z,8.46
2022-12-23T08:25:00.965Z,8.46
2022-12-23T08:26:01.108Z,8.49
2022-12-23T08:27:01.255Z,8.51
2022-12-23T08:28:00.424Z,8.51
2022-12-23T08:29:00.575Z,8.53
2022-12-23T08:30:00.727Z,8.56
2022-12-23T08:31:00.906Z,8.58
2022-12-23T08:32:01.006Z,8.58
2022-12-23T08:33:01.144Z,8.6
2022-12-23T08:34:00.311Z,8.61
2022-12-23T08:35:00.489Z,8.61
2022-12-23T08:36:00.611Z,8.63
2022-12-23T08:37:00.780Z,8.64
2022-12-23T08:38:00.906Z,8.64
2022-12-23T08:39:01.085Z,8.64
2022-12-23T08:40:01.236Z,8.64
2022-12-23T08:41:00.372Z,8.65
2022-12-23T08:42:00.520Z,8.65
2022-12-23T08:43:00.659Z,8.67
2022-12-23T08:44:00.839Z,8.71
2022-12-23T08:45:00.971Z,8.73
2022-12-23T08:46:01.181Z,8.75
2022-12-23T08:47:01.271Z,8.77
2022-12-23T08:48:00.405Z,8.79
2022-12-23T08:49:00.584Z,8.81
2022-12-23T08:50:00.720Z,8.83
2022-12-23T08:51:00.867Z,8.86
2022-12-23T08:52:01.004Z,8.91
2022-12-23T08:53:01.158Z,8.94
2022-12-23T08:54:01.322Z,8.94
2022-12-23T08:55:00.452Z,8.94
2022-12-23T08:56:00.601Z,8.95
2022-12-23T08:57:00.748Z,8.95
2022-12-23T08:58:00.903Z,8.94
2022-12-23T08:59:01.075Z,8.94
2022-12-23T09:00:01.201Z,8.94
2022-12-23T09:01:00.429Z,8.94
2022-12-23T09:02:00.559Z,8.94
2022-12-23T09:03:00.881Z,8.94
2022-12-23T09:04:00.855Z,8.91
2022-12-23T09:05:00.963Z,8.87
2022-12-23T09:06:01.097Z,8.83
2022-12-23T09:07:01.256Z,8.82
2022-12-23T09:08:00.398Z,8.82
2022-12-23T09:09:00.555Z,8.8
2022-12-23T09:10:00.719Z,8.78
2022-12-23T09:11:00.854Z,8.77
2022-12-23T09:12:01.007Z,8.77
2022-12-23T09:13:01.167Z,8.77
2022-12-23T09:14:00.365Z,8.79
2022-12-23T09:15:00.461Z,8.81
2022-12-23T09:16:00.660Z,8.83
2022-12-23T09:17:00.771Z,8.86
2022-12-23T09:18:00.921Z,8.89
2022-12-23T09:19:01.090Z,8.93
2022-12-23T09:20:01.228Z,8.94
2022-12-23T09:21:00.429Z,8.95
2022-12-23T09:22:00.521Z,8.97
2022-12-23T09:23:00.723Z,9.02
2022-12-23T09:24:00.823Z,9.07
2022-12-23T09:25:05.085Z,9.12
2022-12-23T09:26:01.120Z,9.17
2022-12-23T09:27:00.344Z,9.19
2022-12-23T09:28:00.425Z,9.23
2022-12-23T09:29:00.582Z,9.29
2022-12-23T09:30:00.722Z,9.31
2022-12-23T09:31:00.955Z,9.32
2022-12-23T09:32:01.049Z,9.34
2022-12-23T09:33:01.177Z,9.35
2022-12-23T09:34:00.334Z,9.36
2022-12-23T09:35:00.488Z,9.36
2022-12-23T09:36:00.626Z,9.36
2022-12-23T09:37:00.812Z,9.37
2022-12-23T09:38:00.937Z,9.38
2022-12-23T09:39:01.067Z,9.36
2022-12-23T09:40:01.231Z,9.36
2022-12-23T09:41:00.364Z,9.35
2022-12-23T09:42:00.521Z,9.37
2022-12-23T09:43:00.695Z,9.38
2022-12-23T09:44:00.802Z,9.38
2022-12-23T09:45:00.946Z,9.38
2022-12-23T09:46:01.183Z,9.38
2022-12-23T09:47:01.327Z,9.38
2022-12-23T09:48:00.645Z,9.37
2022-12-23T09:49:00.564Z,9.35
2022-12-23T09:50:00.700Z,9.37
2022-12-23T09:51:00.851Z,9.4
2022-12-23T09:52:01.009Z,9.41
2022-12-23T09:53:01.158Z,9.47
2022-12-23T09:54:00.298Z,9.51
2022-12-23T09:55:00.483Z,9.56
2022-12-23T09:56:00.613Z,9.6
2022-12-23T09:57:00.794Z,9.63
2022-12-23T09:58:00.916Z,9.65
2022-12-23T09:59:01.034Z,9.67
2022-12-23T10:00:01.202Z,9.71
2022-12-23T10:01:00.346Z,9.74
2022-12-23T10:02:00.695Z,9.77
2022-12-23T10:03:00.906Z,9.77
2022-12-23T10:04:00.896Z,9.78
2022-12-23T10:05:00.948Z,9.78
2022-12-23T10:06:01.098Z,9.8
2022-12-23T10:07:03.213Z,9.8
2022-12-23T10:08:00.387Z,9.78
2022-12-23T10:09:00.562Z,9.75
2022-12-23T10:10:00.685Z,9.74
2022-12-23T10:11:00.833Z,9.72
2022-12-23T10:12:01.003Z,9.72
2022-12-23T10:13:01.167Z,9.74
2022-12-23T10:14:00.275Z,9.74
2022-12-23T10:15:00.469Z,9.71
2022-12-23T10:16:00.671Z,9.7
2022-12-23T10:17:00.726Z,9.69
2022-12-23T10:18:00.936Z,9.71
2022-12-23T10:19:01.043Z,9.71
2022-12-23T10:20:01.182Z,9.71
2022-12-23T10:21:00.338Z,9.71
2022-12-23T10:22:00.468Z,9.72
2022-12-23T10:23:00.637Z,9.72
2022-12-23T10:24:00.766Z,9.74
2022-12-23T10:25:00.931Z,9.75
2022-12-23T10:26:01.096Z,9.76
2022-12-23T10:27:01.223Z,9.76
2022-12-23T10:28:00.358Z,9.77
2022-12-23T10:29:00.509Z,9.77
2022-12-23T10:30:13.893Z,9.78
2022-12-23T10:32:01.013Z,9.81
2022-12-23T10:33:01.117Z,9.82
2022-12-23T10:34:01.258Z,9.83
2022-12-23T10:35:00.400Z,9.84
2022-12-23T10:36:00.638Z,9.84
2022-12-23T10:37:00.884Z,9.83
2022-12-23T10:38:00.852Z,9.85
2022-12-23T10:39:00.995Z,9.86
2022-12-23T10:40:01.157Z,9.85
2022-12-23T10:41:06.942Z,9.86
2022-12-23T10:42:00.486Z,9.9
2022-12-23T10:43:00.606Z,9.91
2022-12-23T10:44:00.754Z,9.91
2022-12-23T10:45:00.914Z,9.92
2022-12-23T10:46:01.078Z,9.91
2022-12-23T10:47:01.301Z,9.91
2022-12-23T10:48:00.364Z,9.9
2022-12-23T10:49:00.525Z,9.91
2022-12-23T10:50:00.670Z,9.92
2022-12-23T10:51:00.829Z,9.93
2022-12-23T10:52:00.985Z,9.94
2022-12-23T10:53:01.114Z,9.94
2022-12-23T10:54:01.312Z,9.96
2022-12-23T10:55:00.457Z,9.98
2022-12-23T10:56:00.583Z,10
2022-12-23T10:57:00.745Z,10
2022-12-23T10:58:00.858Z,10.03
2022-12-23T10:59:01.007Z,10.04
2022-12-23T11:00:01.168Z,10.03
2022-12-23T11:01:00.336Z,10.03
2022-12-23T11:02:00.631Z,10.05
2022-12-23T11:03:00.772Z,10.07
2022-12-23T11:04:00.743Z,10.08
2022-12-23T11:05:00.902Z,10.09
2022-12-23T11:06:01.056Z,10.08
2022-12-23T11:07:34.311Z,10.09
2022-12-23T11:08:00.352Z,10.08
2022-12-23T11:09:00.507Z,10.07
2022-12-23T11:10:00.645Z,10.07
2022-12-23T11:11:00.793Z,10.04
2022-12-23T11:12:01.033Z,10.01
2022-12-23T11:13:01.093Z,10
2022-12-23T11:14:01.238Z,10.03
2022-12-23T11:15:00.392Z,10.05
2022-12-23T11:16:00.596Z,10.06
2022-12-23T11:17:00.749Z,10.08
2022-12-23T11:18:00.862Z,10.1
2022-12-23T11:19:00.999Z,10.09
2022-12-23T11:20:01.144Z,10.12
2022-12-23T11:21:00.298Z,10.14
2022-12-23T11:22:00.477Z,10.15
2022-12-23T11:23:00.601Z,10.14
2022-12-23T11:24:00.741Z,10.16
2022-12-23T11:25:00.890Z,10.16
2022-12-23T11:26:01.019Z,10.16
2022-12-23T11:27:01.198Z,10.14
2022-12-23T11:28:00.313Z,10.12
2022-12-23T11:29:00.457Z,10.11
2022-12-23T11:30:00.631Z,10.12
2022-12-23T11:31:00.795Z,10.15
2022-12-23T11:32:00.994Z,10.14
2022-12-23T11:33:01.066Z,10.14
2022-12-23T11:34:01.209Z,10.16
2022-12-23T11:35:00.398Z,10.2
2022-12-23T11:36:00.500Z,10.2
2022-12-23T11:37:06.978Z,10.2
2022-12-23T11:38:00.843Z,10.2
2022-12-23T11:39:00.958Z,10.19
2022-12-23T11:40:01.110Z,10.18
2022-12-23T11:41:01.265Z,10.16
2022-12-23T11:42:00.425Z,10.14
2022-12-23T11:43:00.585Z,10.14
2022-12-23T11:44:00.683Z,10.14
2022-12-23T11:45:00.845Z,10.16
2022-12-23T11:46:01.071Z,10.18
2022-12-23T11:47:01.135Z,10.16
2022-12-23T11:48:00.297Z,10.18
2022-12-23T11:49:00.464Z,10.18
2022-12-23T11:50:00.594Z,10.18
2022-12-23T11:51:00.752Z,10.18
2022-12-23T11:52:00.884Z,10.18
2022-12-23T11:53:01.028Z,10.19
2022-12-23T11:54:01.212Z,10.2
2022-12-23T11:55:00.325Z,10.19
2022-12-23T11:56:00.473Z,10.18
2022-12-23T11:57:00.797Z,10.15
2022-12-23T11:58:00.796Z,10.14
2022-12-23T11:59:00.956Z,10.13
2022-12-23T12:00:01.084Z,10.14
2022-12-23T12:01:01.241Z,10.13
2022-12-23T12:02:00.446Z,10.12
2022-12-23T12:03:00.539Z,10.13
2022-12-23T12:04:00.762Z,10.14
2022-12-23T12:05:00.855Z,10.15
2022-12-23T12:06:00.959Z,10.14
2022-12-23T12:07:01.107Z,10.13
2022-12-23T12:08:01.279Z,10.11
2022-12-23T12:09:00.431Z,10.1
2022-12-23T12:10:00.560Z,10.1
2022-12-23T12:11:00.731Z,10.1
2022-12-23T12:12:00.862Z,10.1
2022-12-23T12:13:01.004Z,10.1
2022-12-23T12:14:01.181Z,10.09
2022-12-23T12:15:00.299Z,10.08
2022-12-23T12:16:00.484Z,10.09
2022-12-23T12:17:00.697Z,10.1
2022-12-23T12:18:00.760Z,10.1
2022-12-23T12:19:00.911Z,10.07
2022-12-23T12:20:01.074Z,10.07
2022-12-23T12:21:01.204Z,10.08
2022-12-23T12:22:00.331Z,10.1
2022-12-23T12:23:00.499Z,10.1
2022-12-23T12:24:17.707Z,10.11
2022-12-23T12:25:00.792Z,10.12
2022-12-23T12:26:00.958Z,10.12
2022-12-23T12:27:01.085Z,10.12
2022-12-23T12:28:01.252Z,10.12
2022-12-23T12:29:00.388Z,10.14
2022-12-23T12:30:06.076Z,10.15
2022-12-23T12:31:00.820Z,10.14
2022-12-23T12:32:00.864Z,10.15
2022-12-23T12:33:01.044Z,10.13
2022-12-23T12:34:01.166Z,10.11
2022-12-23T12:35:00.325Z,10.11
2022-12-23T12:36:05.253Z,10.07
2022-12-23T12:37:00.709Z,10.05
2022-12-23T12:38:00.767Z,10.03
2022-12-23T12:39:00.930Z,10.03
2022-12-23T12:40:01.095Z,10.03
2022-12-23T12:41:01.228Z,10
2022-12-23T12:42:05.263Z,9.99
2022-12-23T12:43:00.519Z,9.99
2022-12-23T12:44:00.656Z,10
2022-12-23T12:45:00.855Z,10.01
2022-12-23T12:46:00.988Z,10
2022-12-23T12:47:04.147Z,9.99
2022-12-23T12:48:07.200Z,10.01
2022-12-23T12:49:00.378Z,10.03
2022-12-23T12:50:00.560Z,10
2022-12-23T12:51:00.684Z,9.99
2022-12-23T12:52:00.834Z,9.99
2022-12-23T12:53:00.982Z,10
2022-12-23T12:54:05.181Z,10.01
2022-12-23T12:55:00.289Z,10
2022-12-23T12:56:00.436Z,10
2022-12-23T12:57:00.560Z,9.99
2022-12-23T12:58:00.705Z,9.99
2022-12-23T12:59:00.858Z,9.99
2022-12-23T13:00:06.028Z,9.98
2022-12-23T13:01:01.225Z,9.98
2022-12-23T13:02:00.301Z,9.95
2022-12-23T13:03:00.563Z,9.94
2022-12-23T13:04:00.604Z,9.94
2022-12-23T13:05:00.798Z,9.92
2022-12-23T13:06:00.935Z,9.9
2022-12-23T13:07:01.072Z,9.89
2022-12-23T13:08:01.214Z,9.89
2022-12-23T13:09:00.344Z,9.88
2022-12-23T13:10:00.555Z,9.86
2022-12-23T13:11:00.658Z,9.85
2022-12-23T13:12:00.802Z,9.85
2022-12-23T13:13:00.974Z,9.84
2022-12-23T13:14:01.116Z,9.84
2022-12-23T13:15:01.266Z,9.82
2022-12-23T13:16:00.418Z,9.82
2022-12-23T13:17:00.618Z,9.8
2022-12-23T13:18:03.630Z,9.77
2022-12-23T13:19:00.867Z,9.74
2022-12-23T13:20:01.011Z,9.7
2022-12-23T13:21:01.163Z,9.67
2022-12-23T13:22:00.320Z,9.64